createdAt,value
2023-04-14T09:48:16.623Z,3.70
2023-04-14T09:51:14.308Z,3.50
2023-04-14T09:53:43.124Z,4.70
2023-04-14T09:56:12.801Z,3.80
2023-04-14T09:58:44.800Z,4.50
2023-04-14T10:01:20.004Z,6.30
2023-04-14T10:03:50.007Z,3.80
2023-04-14T10:06:24.000Z,3.30
2023-04-14T10:08:54.506Z,3.70
2023-04-14T10:11:27.741Z,4.50
2023-04-14T10:14:02.911Z,4.20
2023-04-14T10:16:32.364Z,4.40
2023-04-14T10:19:02.657Z,3.20
2023-04-14T10:21:32.957Z,3.40
2023-04-14T10:24:01.895Z,5.00
2023-04-14T10:26:31.020Z,3.30
2023-04-14T10:29:02.784Z,4.70
2023-04-14T10:31:45.735Z,3.40
2023-04-14T10:34:16.541Z,3.60
2023-04-14T10:36:45.301Z,3.20
2023-04-14T10:39:14.049Z,3.80
2023-04-14T10:41:48.787Z,3.60
2023-04-14T10:44:28.829Z,2.80
2023-04-14T10:46:59.004Z,3.90
2023-04-14T10:49:41.684Z,2.90
2023-04-14T10:52:17.037Z,4.30
2023-04-14T10:55:08.214Z,3.70
2023-04-14T10:57:43.610Z,4.70
2023-04-14T11:00:37.801Z,4.10
2023-04-14T11:03:15.422Z,3.90
2023-04-14T11:05:48.731Z,3.70
2023-04-14T11:08:25.129Z,4.10
2023-04-14T11:11:05.117Z,3.40
2023-04-14T11:13:35.615Z,3.50
2023-04-14T11:16:07.625Z,3.90
2023-04-14T11:18:45.523Z,6.20
2023-04-14T11:21:18.285Z,3.50
2023-04-14T11:23:48.017Z,3.80
2023-04-14T11:26:16.993Z,3.40
2023-04-14T11:28:47.063Z,4.00
2023-04-14T11:31:21.757Z,3.40
2023-04-14T11:33:52.293Z,3.20
2023-04-14T11:36:21.557Z,2.90
2023-04-14T11:38:50.338Z,3.10
2023-04-14T11:41:20.709Z,3.80
2023-04-14T11:43:49.635Z,4.00
2023-04-14T11:46:22.547Z,3.70
2023-04-14T11:48:57.902Z,4.00
2023-04-14T11:51:32.853Z,4.10
2023-04-14T11:54:01.701Z,3.00
2023-04-14T11:56:31.554Z,2.30
2023-04-14T11:59:05.467Z,3.10
2023-04-14T12:01:34.384Z,3.50
2023-04-14T12:04:07.036Z,4.20
2023-04-14T12:06:38.907Z,3.60
2023-04-14T12:09:09.667Z,4.60
2023-04-14T12:11:39.216Z,2.90
2023-04-14T12:14:08.659Z,2.70
2023-04-14T12:16:37.458Z,3.20
2023-04-14T12:19:05.970Z,4.00
2023-04-14T12:21:34.593Z,4.20
2023-04-14T12:24:03.215Z,4.80
2023-04-14T12:26:32.926Z,4.10
2023-04-14T12:31:31.985Z,5.10
2023-04-14T12:34:04.221Z,3.60
2023-04-14T12:36:48.706Z,3.90
2023-04-14T12:39:22.555Z,5.20
2023-04-14T12:41:51.222Z,4.10
2023-04-14T12:44:21.873Z,3.80
2023-04-14T12:46:53.031Z,3.50
2023-04-14T12:49:31.998Z,4.00
2023-04-14T12:52:01.403Z,4.10
2023-04-14T12:54:48.068Z,5.00
2023-04-14T12:57:16.848Z,4.90
2023-04-14T12:59:46.145Z,4.80
2023-04-14T13:02:15.882Z,4.40
2023-04-14T13:04:45.523Z,3.40
2023-04-14T13:07:14.085Z,4.20
2023-04-14T13:09:45.769Z,4.10
2023-04-14T13:12:14.602Z,5.30
2023-04-14T13:14:43.134Z,4.80
2023-04-14T13:17:13.385Z,5.60
2023-04-14T13:19:42.365Z,4.10
2023-04-14T13:22:13.306Z,4.50
2023-04-14T13:24:41.996Z,4.20
2023-04-14T13:27:12.046Z,4.40
2023-04-14T13:29:42.216Z,3.00
2023-04-14T13:32:12.827Z,3.30
2023-04-14T13:34:42.310Z,5.20
2023-04-14T13:37:10.900Z,4.00
2023-04-14T13:39:39.636Z,3.30
2023-04-14T13:42:08.244Z,3.30
2023-04-14T13:44:37.805Z,4.30
2023-04-14T13:47:06.884Z,4.80
2023-04-14T13:49:35.429Z,5.10
2023-04-14T13:52:03.949Z,4.50
2023-04-14T13:54:32.621Z,4.00
2023-04-14T13:57:01.381Z,3.80
2023-04-14T13:59:29.966Z,4.80
2023-04-14T14:01:58.821Z,4.10
2023-04-14T14:04:27.759Z,4.50
2023-04-14T14:06:56.562Z,7.90
2023-04-14T14:09:25.112Z,8.40
2023-04-14T14:11:54.268Z,5.30
2023-04-14T14:14:22.850Z,5.40
2023-04-14T14:16:51.745Z,5.60
2023-04-14T14:19:20.348Z,5.10
2023-04-14T14:21:48.899Z,5.80
2023-04-14T14:24:17.540Z,6.40
2023-04-14T14:26:46.399Z,5.60
2023-04-14T14:29:14.932Z,5.40
2023-04-14T14:31:43.735Z,4.70
2023-04-14T14:34:12.290Z,6.30
2023-04-14T14:36:41.194Z,6.40
2023-04-14T14:39:10.304Z,6.40
2023-04-14T14:41:39.145Z,6.50
2023-04-14T14:44:07.683Z,4.90
2023-04-14T14:46:36.732Z,8.70
2023-04-14T14:49:05.442Z,9.50
2023-04-14T14:51:34.120Z,9.00
2023-04-14T14:54:09.741Z,8.20
2023-04-14T14:56:39.244Z,7.90
2023-04-14T14:59:08.880Z,7.20
2023-04-14T15:01:37.462Z,8.10
2023-04-14T15:04:06.562Z,6.90
2023-04-14T15:06:36.514Z,8.70
2023-04-14T15:09:06.680Z,7.10
2023-04-14T15:11:35.482Z,9.40
2023-04-14T15:14:04.480Z,13.70
2023-04-14T15:16:33.599Z,8.70
2023-04-14T15:19:02.169Z,9.10
2023-04-14T15:21:33.078Z,8.20
2023-04-14T15:24:02.056Z,7.70
2023-04-14T15:26:30.790Z,7.50
2023-04-14T15:28:59.316Z,8.20
2023-04-14T15:31:28.224Z,6.20
2023-04-14T15:34:02.497Z,7.00
2023-04-14T15:36:34.005Z,9.90
2023-04-14T15:39:02.546Z,7.80
2023-04-14T15:41:31.376Z,7.10
2023-04-14T15:44:00.169Z,7.00
2023-04-14T15:46:29.078Z,8.00
2023-04-14T15:48:57.861Z,7.30
2023-04-14T15:51:26.849Z,8.80
2023-04-14T15:53:55.589Z,5.70
2023-04-14T15:56:24.840Z,8.90
2023-04-14T15:58:53.331Z,7.40
2023-04-14T16:01:21.904Z,6.20
2023-04-14T16:03:52.580Z,8.00
2023-04-14T16:06:21.847Z,7.70
2023-04-14T16:08:50.335Z,7.10
2023-04-14T16:11:19.767Z,7.70
2023-04-14T16:13:49.018Z,6.30
2023-04-14T16:16:18.039Z,5.80
2023-04-14T16:18:46.773Z,7.30
2023-04-14T16:21:15.924Z,8.40
2023-04-14T16:23:44.643Z,7.00
2023-04-14T16:26:13.359Z,5.50
2023-04-14T16:28:41.926Z,6.70
2023-04-14T16:31:10.738Z,6.60
2023-04-14T16:33:39.322Z,6.60
2023-04-14T16:36:08.001Z,6.70
2023-04-14T16:38:36.528Z,6.00
2023-04-14T16:41:05.496Z,6.10
2023-04-14T16:43:33.993Z,5.60
2023-04-14T16:46:08.149Z,6.20
2023-04-14T16:48:37.336Z,7.10
2023-04-14T16:51:08.713Z,5.60
2023-04-14T16:53:39.160Z,5.80
2023-04-14T16:56:09.076Z,7.40
2023-04-14T16:58:39.097Z,7.20
2023-04-14T17:01:07.986Z,7.00
2023-04-14T17:03:37.125Z,6.90
2023-04-14T17:06:06.199Z,5.90
2023-04-14T17:08:34.901Z,6.60
2023-04-14T17:11:04.772Z,6.00
2023-04-14T17:13:33.336Z,8.00
2023-04-14T17:16:08.157Z,15.00
2023-04-14T17:18:38.736Z,16.30
2023-04-14T17:21:07.673Z,17.50
2023-04-14T17:23:38.329Z,19.70
2023-04-14T17:26:07.207Z,23.20
2023-04-14T17:28:36.196Z,18.40
2023-04-14T17:31:12.925Z,19.70
2023-04-14T17:33:45.747Z,19.50
2023-04-14T17:36:16.816Z,17.10
2023-04-14T17:38:46.160Z,16.10
2023-04-14T17:41:14.870Z,16.60
2023-04-14T17:43:44.093Z,17.00
2023-04-14T17:46:12.744Z,22.00
2023-04-14T17:48:41.389Z,68.80
2023-04-14T17:51:11.835Z,146.50
2023-04-14T17:53:41.054Z,81.20
2023-04-14T17:56:11.611Z,22.80
2023-04-14T17:58:40.408Z,19.20
2023-04-14T18:01:09.937Z,13.00
2023-04-14T18:03:38.563Z,11.90
2023-04-14T18:06:08.015Z,14.90
2023-04-14T18:08:36.543Z,17.90
2023-04-14T18:11:05.885Z,22.60
2023-04-14T18:13:34.981Z,17.20
2023-04-14T18:16:04.671Z,14.50
2023-04-14T18:18:33.302Z,13.00
2023-04-14T18:21:02.014Z,13.90
2023-04-14T18:23:31.762Z,18.80
2023-04-14T18:28:34.671Z,15.90
2023-04-14T18:31:04.613Z,26.40
2023-04-14T18:33:33.798Z,29.40
2023-04-14T18:36:02.604Z,30.40
2023-04-14T18:38:31.843Z,25.50
2023-04-14T18:41:05.084Z,47.00
2023-04-14T18:43:34.499Z,40.30
2023-04-14T18:46:03.961Z,25.50
2023-04-14T18:48:32.818Z,20.10
2023-04-14T18:51:04.559Z,15.60
2023-04-14T18:53:33.174Z,16.80
2023-04-14T18:56:02.079Z,18.10
2023-04-14T18:58:30.866Z,14.90
2023-04-14T19:00:59.669Z,17.10
2023-04-14T19:03:28.792Z,14.40
2023-04-14T19:05:57.783Z,17.00
2023-04-14T19:08:26.547Z,17.80
2023-04-14T19:10:55.128Z,14.00
2023-04-14T19:13:24.655Z,14.30
2023-04-14T19:15:53.276Z,11.90
2023-04-14T19:18:22.067Z,9.10
2023-04-14T19:20:50.811Z,11.10
2023-04-14T19:23:19.707Z,9.00
2023-04-14T19:25:49.014Z,9.50
2023-04-14T19:28:19.448Z,10.60
2023-04-14T19:30:48.016Z,9.80
2023-04-14T19:33:16.425Z,13.70
2023-04-14T19:35:45.519Z,11.70
2023-04-14T19:38:14.011Z,15.30
2023-04-14T19:40:51.683Z,11.00
2023-04-14T19:43:20.326Z,9.00
2023-04-14T19:45:53.703Z,13.00
2023-04-14T19:48:24.324Z,10.80
2023-04-14T19:50:55.179Z,11.00
2023-04-14T19:53:24.973Z,9.60
2023-04-14T19:55:56.174Z,10.70
2023-04-14T19:58:27.007Z,12.40
2023-04-14T20:00:59.373Z,11.40
2023-04-14T20:03:28.673Z,12.40
2023-04-14T20:05:57.932Z,9.30
2023-04-14T20:08:27.792Z,8.70
2023-04-14T20:10:56.578Z,11.00
2023-04-14T20:13:28.016Z,7.80
2023-04-14T20:15:56.858Z,8.20
2023-04-14T20:18:28.113Z,9.80
2023-04-14T20:20:56.829Z,9.80
2023-04-14T20:23:26.386Z,9.20
2023-04-14T20:25:55.943Z,6.00
2023-04-14T20:28:26.372Z,4.90
2023-04-14T20:30:56.260Z,3.50
2023-04-14T20:33:25.075Z,4.70
2023-04-14T20:35:54.375Z,4.00
2023-04-14T20:38:23.570Z,5.20
2023-04-14T20:40:52.198Z,4.60
2023-04-14T20:43:21.128Z,4.20
2023-04-14T20:45:50.211Z,4.70
2023-04-14T20:48:19.810Z,3.80
2023-04-14T20:50:50.384Z,4.70
2023-04-14T20:53:21.442Z,5.70
2023-04-14T20:55:51.222Z,5.00
2023-04-14T20:58:19.888Z,6.10
2023-04-14T21:00:49.496Z,5.50
2023-04-14T21:03:18.409Z,6.00
2023-04-14T21:05:47.707Z,6.70
2023-04-14T21:08:16.326Z,5.10
2023-04-14T21:11:14.920Z,7.10
2023-04-14T21:15:29.552Z,6.60
2023-04-14T21:16:23.013Z,7.00
2023-04-14T21:18:51.871Z,5.30
2023-04-14T21:21:20.882Z,5.60
2023-04-14T21:23:49.624Z,3.90
2023-04-14T21:26:19.668Z,4.80
2023-04-14T21:31:17.835Z,3.70
2023-04-14T21:33:47.119Z,4.30
2023-04-14T21:36:15.994Z,3.50
2023-04-14T21:38:45.548Z,2.90
2023-04-14T21:41:14.739Z,3.40
2023-04-14T21:43:43.844Z,4.40
2023-04-14T21:46:12.611Z,3.90
2023-04-14T21:48:41.502Z,2.60
2023-04-14T21:51:10.306Z,3.70
2023-04-14T21:53:39.208Z,2.80
2023-04-14T21:56:10.037Z,3.60
2023-04-14T21:58:40.588Z,2.70
2023-04-14T22:01:12.801Z,1.90
2023-04-14T22:03:42.385Z,2.20
2023-04-14T22:06:11.708Z,2.60
2023-04-14T22:08:41.183Z,2.70
2023-04-14T22:11:10.576Z,3.10
2023-04-14T22:13:39.507Z,2.70
2023-04-14T22:16:11.670Z,3.40
2023-04-14T22:18:40.920Z,2.60
2023-04-14T22:21:12.309Z,3.30
2023-04-14T22:23:44.055Z,2.40
2023-04-14T22:26:14.053Z,3.40
2023-04-14T22:28:42.965Z,3.60
2023-04-14T22:31:12.488Z,2.40
2023-04-14T22:33:42.430Z,2.50
2023-04-14T22:38:41.880Z,2.70
2023-04-14T22:41:11.413Z,1.90
2023-04-14T22:43:40.243Z,2.60
2023-04-14T22:46:11.187Z,2.30
2023-04-14T22:48:41.086Z,2.30
2023-04-14T22:51:13.320Z,2.00
2023-04-14T22:53:42.374Z,3.50
2023-04-14T22:56:11.763Z,3.20
2023-04-14T22:58:40.877Z,4.80
2023-04-14T23:01:21.289Z,2.90
2023-04-14T23:03:53.577Z,3.80
2023-04-14T23:06:23.320Z,3.00
2023-04-14T23:08:52.584Z,3.20
2023-04-14T23:11:21.907Z,4.70
2023-04-14T23:13:51.138Z,3.90
2023-04-14T23:16:20.943Z,3.50
2023-04-14T23:18:53.025Z,2.40
2023-04-14T23:21:22.760Z,3.00
2023-04-14T23:23:52.140Z,2.60
2023-04-14T23:26:22.328Z,1.90
2023-04-14T23:31:22.350Z,1.50
2023-04-14T23:33:53.244Z,2.40
2023-04-14T23:36:23.329Z,2.50
2023-04-14T23:41:22.266Z,1.60
2023-04-14T23:43:52.428Z,1.80
2023-04-14T23:46:22.134Z,2.70
2023-04-14T23:51:33.060Z,2.80
2023-04-14T23:54:03.108Z,3.00
2023-04-14T23:59:02.846Z,2.50
